sensor_id;sensor_type;location;lat;lon;timestamp;pressure;altitude;pressure_sealevel;temperature
19282;BMP180;9774;52.034;5.342;2024-02-26T00:01:20;99752.00;;;11.60
19282;BMP180;9774;52.034;5.342;2024-02-26T00:03:47;99762.00;;;11.60
19282;BMP180;9774;52.034;5.342;2024-02-26T00:06:14;99762.00;;;11.60
19282;BMP180;9774;52.034;5.342;2024-02-26T00:08:42;99761.00;;;11.60
19282;BMP180;9774;52.034;5.342;2024-02-26T00:11:10;99761.00;;;11.60
19282;BMP180;9774;52.034;5.342;2024-02-26T00:13:37;99767.00;;;11.60
19282;BMP180;9774;52.034;5.342;2024-02-26T00:16:05;99763.00;;;11.60
19282;BMP180;9774;52.034;5.342;2024-02-26T00:18:33;99761.00;;;11.60
19282;BMP180;9774;52.034;5.342;2024-02-26T00:21:00;99769.00;;;11.50
19282;BMP180;9774;52.034;5.342;2024-02-26T00:23:27;99761.00;;;11.50
19282;BMP180;9774;52.034;5.342;2024-02-26T00:25:54;99763.00;;;11.60
19282;BMP180;9774;52.034;5.342;2024-02-26T00:28:23;99761.00;;;11.50
19282;BMP180;9774;52.034;5.342;2024-02-26T00:30:50;99772.00;;;11.50
19282;BMP180;9774;52.034;5.342;2024-02-26T00:33:22;99765.00;;;11.50
19282;BMP180;9774;52.034;5.342;2024-02-26T00:35:49;99762.00;;;11.50
19282;BMP180;9774;52.034;5.342;2024-02-26T00:38:16;99768.00;;;11.50
19282;BMP180;9774;52.034;5.342;2024-02-26T00:40:44;99762.00;;;11.50
19282;BMP180;9774;52.034;5.342;2024-02-26T00:43:11;99767.00;;;11.50
19282;BMP180;9774;52.034;5.342;2024-02-26T00:45:39;99770.00;;;11.50
19282;BMP180;9774;52.034;5.342;2024-02-26T00:48:07;99769.00;;;11.50
19282;BMP180;9774;52.034;5.342;2024-02-26T00:50:34;99762.00;;;11.40
19282;BMP180;9774;52.034;5.342;2024-02-26T00:53:02;99770.00;;;11.40
19282;BMP180;9774;52.034;5.342;2024-02-26T00:55:29;99771.00;;;11.40
19282;BMP180;9774;52.034;5.342;2024-02-26T00:57:56;99765.00;;;11.40
19282;BMP180;9774;52.034;5.342;2024-02-26T01:00:23;99768.00;;;11.40
19282;BMP180;9774;52.034;5.342;2024-02-26T01:02:51;99755.00;;;11.40
19282;BMP180;9774;52.034;5.342;2024-02-26T01:05:19;99757.00;;;11.40
19282;BMP180;9774;52.034;5.342;2024-02-26T01:07:46;99754.00;;;11.40
19282;BMP180;9774;52.034;5.342;2024-02-26T01:10:13;99751.00;;;11.40
19282;BMP180;9774;52.034;5.342;2024-02-26T01:12:40;99748.00;;;11.40
19282;BMP180;9774;52.034;5.342;2024-02-26T01:15:08;99747.00;;;11.40
19282;BMP180;9774;52.034;5.342;2024-02-26T01:17:35;99754.00;;;11.40
19282;BMP180;9774;52.034;5.342;2024-02-26T01:20:05;99757.00;;;11.40
19282;BMP180;9774;52.034;5.342;2024-02-26T01:22:34;99758.00;;;11.40
19282;BMP180;9774;52.034;5.342;2024-02-26T01:25:01;99750.00;;;11.40
19282;BMP180;9774;52.034;5.342;2024-02-26T01:27:29;99761.00;;;11.40
19282;BMP180;9774;52.034;5.342;2024-02-26T01:29:56;99761.00;;;11.50
19282;BMP180;9774;52.034;5.342;2024-02-26T01:32:23;99758.00;;;11.50
19282;BMP180;9774;52.034;5.342;2024-02-26T01:34:50;99754.00;;;11.50
19282;BMP180;9774;52.034;5.342;2024-02-26T01:37:18;99759.00;;;11.50
19282;BMP180;9774;52.034;5.342;2024-02-26T01:39:46;99754.00;;;11.50
19282;BMP180;9774;52.034;5.342;2024-02-26T01:42:13;99761.00;;;11.40
19282;BMP180;9774;52.034;5.342;2024-02-26T01:44:40;99759.00;;;11.50
19282;BMP180;9774;52.034;5.342;2024-02-26T01:47:11;99756.00;;;11.40
19282;BMP180;9774;52.034;5.342;2024-02-26T01:49:39;99761.00;;;11.40
19282;BMP180;9774;52.034;5.342;2024-02-26T01:52:07;99761.00;;;11.40
19282;BMP180;9774;52.034;5.342;2024-02-26T01:54:38;99765.00;;;11.40
19282;BMP180;9774;52.034;5.342;2024-02-26T01:57:08;99767.00;;;11.50
19282;BMP180;9774;52.034;5.342;2024-02-26T01:59:35;99774.00;;;11.50
19282;BMP180;9774;52.034;5.342;2024-02-26T02:02:07;99772.00;;;11.50
19282;BMP180;9774;52.034;5.342;2024-02-26T02:04:35;99772.00;;;11.50
19282;BMP180;9774;52.034;5.342;2024-02-26T02:07:03;99771.00;;;11.50
19282;BMP180;9774;52.034;5.342;2024-02-26T02:09:34;99773.00;;;11.50
19282;BMP180;9774;52.034;5.342;2024-02-26T02:12:04;99774.00;;;11.50
19282;BMP180;9774;52.034;5.342;2024-02-26T02:14:31;99785.00;;;11.60
19282;BMP180;9774;52.034;5.342;2024-02-26T02:16:58;99785.00;;;11.60
19282;BMP180;9774;52.034;5.342;2024-02-26T02:19:25;99793.00;;;11.60
19282;BMP180;9774;52.034;5.342;2024-02-26T02:21:54;99794.00;;;11.60
19282;BMP180;9774;52.034;5.342;2024-02-26T02:24:21;99793.00;;;11.60
19282;BMP180;9774;52.034;5.342;2024-02-26T02:26:48;99795.00;;;11.60
19282;BMP180;9774;52.034;5.342;2024-02-26T02:29:15;99809.00;;;11.60
19282;BMP180;9774;52.034;5.342;2024-02-26T02:31:43;99800.00;;;11.60
19282;BMP180;9774;52.034;5.342;2024-02-26T02:34:10;99806.00;;;11.50
19282;BMP180;9774;52.034;5.342;2024-02-26T02:36:49;99797.00;;;11.50
19282;BMP180;9774;52.034;5.342;2024-02-26T02:39:18;99802.00;;;11.60
19282;BMP180;9774;52.034;5.342;2024-02-26T02:41:45;99808.00;;;11.60
19282;BMP180;9774;52.034;5.342;2024-02-26T02:44:12;99820.00;;;11.60
19282;BMP180;9774;52.034;5.342;2024-02-26T02:46:39;99826.00;;;11.60
19282;BMP180;9774;52.034;5.342;2024-02-26T02:49:08;99827.00;;;11.60
19282;BMP180;9774;52.034;5.342;2024-02-26T02:51:36;99831.00;;;11.60
19282;BMP180;9774;52.034;5.342;2024-02-26T02:54:04;99835.00;;;11.60
19282;BMP180;9774;52.034;5.342;2024-02-26T02:56:32;99834.00;;;11.60
19282;BMP180;9774;52.034;5.342;2024-02-26T02:58:59;99842.00;;;11.60
19282;BMP180;9774;52.034;5.342;2024-02-26T03:01:26;99838.00;;;11.60
19282;BMP180;9774;52.034;5.342;2024-02-26T03:03:53;99830.00;;;11.70
19282;BMP180;9774;52.034;5.342;2024-02-26T03:06:21;99840.00;;;11.70
19282;BMP180;9774;52.034;5.342;2024-02-26T03:08:48;99845.00;;;11.70
19282;BMP180;9774;52.034;5.342;2024-02-26T03:11:15;99840.00;;;11.70
19282;BMP180;9774;52.034;5.342;2024-02-26T03:13:44;99841.00;;;11.70
19282;BMP180;9774;52.034;5.342;2024-02-26T03:16:11;99852.00;;;11.70
19282;BMP180;9774;52.034;5.342;2024-02-26T03:18:39;99855.00;;;11.70
19282;BMP180;9774;52.034;5.342;2024-02-26T03:21:06;99852.00;;;11.70
19282;BMP180;9774;52.034;5.342;2024-02-26T03:23:33;99854.00;;;11.70
19282;BMP180;9774;52.034;5.342;2024-02-26T03:26:03;99860.00;;;11.70
19282;BMP180;9774;52.034;5.342;2024-02-26T03:28:30;99859.00;;;11.70
19282;BMP180;9774;52.034;5.342;2024-02-26T03:31:01;99863.00;;;11.60
19282;BMP180;9774;52.034;5.342;2024-02-26T03:33:28;99863.00;;;11.70
19282;BMP180;9774;52.034;5.342;2024-02-26T03:35:55;99866.00;;;11.70
19282;BMP180;9774;52.034;5.342;2024-02-26T03:38:22;99864.00;;;11.70
19282;BMP180;9774;52.034;5.342;2024-02-26T03:40:49;99863.00;;;11.70
19282;BMP180;9774;52.034;5.342;2024-02-26T03:43:17;99869.00;;;11.70
19282;BMP180;9774;52.034;5.342;2024-02-26T03:45:44;99873.00;;;11.60
19282;BMP180;9774;52.034;5.342;2024-02-26T03:48:12;99871.00;;;11.60
19282;BMP180;9774;52.034;5.342;2024-02-26T03:50:39;99874.00;;;11.60
19282;BMP180;9774;52.034;5.342;2024-02-26T03:53:07;99866.00;;;11.60
19282;BMP180;9774;52.034;5.342;2024-02-26T03:55:34;99867.00;;;11.60
19282;BMP180;9774;52.034;5.342;2024-02-26T03:58:02;99859.00;;;11.60
19282;BMP180;9774;52.034;5.342;2024-02-26T04:00:29;99862.00;;;11.60
19282;BMP180;9774;52.034;5.342;2024-02-26T04:02:56;99866.00;;;11.60
19282;BMP180;9774;52.034;5.342;2024-02-26T04:05:25;99864.00;;;11.60
19282;BMP180;9774;52.034;5.342;2024-02-26T04:07:52;99864.00;;;11.60
19282;BMP180;9774;52.034;5.342;2024-02-26T04:10:19;99868.00;;;11.60
19282;BMP180;9774;52.034;5.342;2024-02-26T04:12:46;99865.00;;;11.60
19282;BMP180;9774;52.034;5.342;2024-02-26T04:15:13;99879.00;;;11.60
19282;BMP180;9774;52.034;5.342;2024-02-26T04:17:41;99885.00;;;11.60
19282;BMP180;9774;52.034;5.342;2024-02-26T04:20:14;99877.00;;;11.50
19282;BMP180;9774;52.034;5.342;2024-02-26T04:22:44;99886.00;;;11.50
19282;BMP180;9774;52.034;5.342;2024-02-26T04:25:12;99881.00;;;11.60
19282;BMP180;9774;52.034;5.342;2024-02-26T04:27:40;99881.00;;;11.50
19282;BMP180;9774;52.034;5.342;2024-02-26T04:30:08;99884.00;;;11.50
19282;BMP180;9774;52.034;5.342;2024-02-26T04:32:35;99885.00;;;11.50
19282;BMP180;9774;52.034;5.342;2024-02-26T04:35:03;99893.00;;;11.50
19282;BMP180;9774;52.034;5.342;2024-02-26T04:37:30;99893.00;;;11.50
19282;BMP180;9774;52.034;5.342;2024-02-26T04:40:00;99891.00;;;11.50
19282;BMP180;9774;52.034;5.342;2024-02-26T04:42:28;99899.00;;;11.50
19282;BMP180;9774;52.034;5.342;2024-02-26T04:44:55;99895.00;;;11.50
19282;BMP180;9774;52.034;5.342;2024-02-26T04:47:23;99902.00;;;11.40
19282;BMP180;9774;52.034;5.342;2024-02-26T04:49:50;99895.00;;;11.40
19282;BMP180;9774;52.034;5.342;2024-02-26T04:52:18;99897.00;;;11.40
19282;BMP180;9774;52.034;5.342;2024-02-26T04:54:45;99906.00;;;11.40
19282;BMP180;9774;52.034;5.342;2024-02-26T04:57:14;99903.00;;;11.40
19282;BMP180;9774;52.034;5.342;2024-02-26T04:59:41;99912.00;;;11.40
19282;BMP180;9774;52.034;5.342;2024-02-26T05:02:08;99906.00;;;11.40
19282;BMP180;9774;52.034;5.342;2024-02-26T05:04:35;99919.00;;;11.40
19282;BMP180;9774;52.034;5.342;2024-02-26T05:07:02;99920.00;;;11.40
19282;BMP180;9774;52.034;5.342;2024-02-26T05:09:31;99915.00;;;11.40
19282;BMP180;9774;52.034;5.342;2024-02-26T05:11:58;99920.00;;;11.40
19282;BMP180;9774;52.034;5.342;2024-02-26T05:14:27;99924.00;;;11.40
19282;BMP180;9774;52.034;5.342;2024-02-26T05:16:54;99926.00;;;11.40
19282;BMP180;9774;52.034;5.342;2024-02-26T05:19:21;99922.00;;;11.40
19282;BMP180;9774;52.034;5.342;2024-02-26T05:21:48;99911.00;;;11.40
19282;BMP180;9774;52.034;5.342;2024-02-26T05:24:16;99918.00;;;11.40
19282;BMP180;9774;52.034;5.342;2024-02-26T05:26:45;99920.00;;;11.30
19282;BMP180;9774;52.034;5.342;2024-02-26T05:29:12;99922.00;;;11.40
19282;BMP180;9774;52.034;5.342;2024-02-26T05:31:42;99918.00;;;11.30
19282;BMP180;9774;52.034;5.342;2024-02-26T05:34:09;99922.00;;;11.40
19282;BMP180;9774;52.034;5.342;2024-02-26T05:36:36;99929.00;;;11.40
19282;BMP180;9774;52.034;5.342;2024-02-26T05:39:04;99932.00;;;11.30
19282;BMP180;9774;52.034;5.342;2024-02-26T05:41:31;99928.00;;;11.30
19282;BMP180;9774;52.034;5.342;2024-02-26T05:43:58;99938.00;;;11.30
19282;BMP180;9774;52.034;5.342;2024-02-26T05:46:26;99939.00;;;11.30
19282;BMP180;9774;52.034;5.342;2024-02-26T05:48:55;99939.00;;;11.30
19282;BMP180;9774;52.034;5.342;2024-02-26T05:51:22;99941.00;;;11.40
19282;BMP180;9774;52.034;5.342;2024-02-26T05:53:49;99941.00;;;11.40
19282;BMP180;9774;52.034;5.342;2024-02-26T05:56:20;99954.00;;;11.40
19282;BMP180;9774;52.034;5.342;2024-02-26T05:58:48;99947.00;;;11.40
19282;BMP180;9774;52.034;5.342;2024-02-26T06:01:16;99948.00;;;11.40
19282;BMP180;9774;52.034;5.342;2024-02-26T06:03:44;99948.00;;;11.40
19282;BMP180;9774;52.034;5.342;2024-02-26T06:06:12;99944.00;;;11.40
19282;BMP180;9774;52.034;5.342;2024-02-26T06:08:40;99954.00;;;11.40
19282;BMP180;9774;52.034;5.342;2024-02-26T06:11:08;99956.00;;;11.40
19282;BMP180;9774;52.034;5.342;2024-02-26T06:13:35;99976.00;;;11.40
19282;BMP180;9774;52.034;5.342;2024-02-26T06:16:02;99966.00;;;11.40
19282;BMP180;9774;52.034;5.342;2024-02-26T06:18:30;99967.00;;;11.40
19282;BMP180;9774;52.034;5.342;2024-02-26T06:20:57;99970.00;;;11.40
19282;BMP180;9774;52.034;5.342;2024-02-26T06:23:26;99970.00;;;11.40
19282;BMP180;9774;52.034;5.342;2024-02-26T06:25:53;99976.00;;;11.40
19282;BMP180;9774;52.034;5.342;2024-02-26T06:28:21;99982.00;;;11.40
19282;BMP180;9774;52.034;5.342;2024-02-26T06:30:48;99986.00;;;11.40
19282;BMP180;9774;52.034;5.342;2024-02-26T06:33:16;99991.00;;;11.40
19282;BMP180;9774;52.034;5.342;2024-02-26T06:35:43;99986.00;;;11.40
19282;BMP180;9774;52.034;5.342;2024-02-26T06:38:11;99987.00;;;11.50
19282;BMP180;9774;52.034;5.342;2024-02-26T06:40:41;99991.00;;;11.50
19282;BMP180;9774;52.034;5.342;2024-02-26T06:43:08;100005.00;;;11.40
19282;BMP180;9774;52.034;5.342;2024-02-26T06:45:35;100004.00;;;11.50
19282;BMP180;9774;52.034;5.342;2024-02-26T06:48:02;100002.00;;;11.50
19282;BMP180;9774;52.034;5.342;2024-02-26T06:50:29;100011.00;;;11.50
19282;BMP180;9774;52.034;5.342;2024-02-26T06:52:56;100005.00;;;11.50
19282;BMP180;9774;52.034;5.342;2024-02-26T06:55:24;100012.00;;;11.50
19282;BMP180;9774;52.034;5.342;2024-02-26T06:57:52;100021.00;;;11.50
19282;BMP180;9774;52.034;5.342;2024-02-26T07:00:19;100017.00;;;11.50
19282;BMP180;9774;52.034;5.342;2024-02-26T07:02:47;100014.00;;;11.50
19282;BMP180;9774;52.034;5.342;2024-02-26T07:05:14;100026.00;;;11.50
19282;BMP180;9774;52.034;5.342;2024-02-26T07:07:41;100033.00;;;11.50
19282;BMP180;9774;52.034;5.342;2024-02-26T07:10:09;100029.00;;;11.50
19282;BMP180;9774;52.034;5.342;2024-02-26T07:12:38;100031.00;;;11.50
19282;BMP180;9774;52.034;5.342;2024-02-26T07:15:08;100042.00;;;11.40
19282;BMP180;9774;52.034;5.342;2024-02-26T07:17:36;100048.00;;;11.40
19282;BMP180;9774;52.034;5.342;2024-02-26T07:20:04;100043.00;;;11.50
19282;BMP180;9774;52.034;5.342;2024-02-26T07:22:32;100051.00;;;11.40
19282;BMP180;9774;52.034;5.342;2024-02-26T07:24:59;100050.00;;;11.50
19282;BMP180;9774;52.034;5.342;2024-02-26T07:27:26;100052.00;;;11.50
19282;BMP180;9774;52.034;5.342;2024-02-26T07:29:53;100056.00;;;11.50
19282;BMP180;9774;52.034;5.342;2024-02-26T07:32:22;100045.00;;;11.50
19282;BMP180;9774;52.034;5.342;2024-02-26T07:34:49;100050.00;;;11.50
19282;BMP180;9774;52.034;5.342;2024-02-26T07:37:16;100058.00;;;11.50
19282;BMP180;9774;52.034;5.342;2024-02-26T07:39:43;100065.00;;;11.50
19282;BMP180;9774;52.034;5.342;2024-02-26T07:42:10;100057.00;;;11.50
19282;BMP180;9774;52.034;5.342;2024-02-26T07:44:37;100078.00;;;11.50
19282;BMP180;9774;52.034;5.342;2024-02-26T07:47:08;100075.00;;;11.50
19282;BMP180;9774;52.034;5.342;2024-02-26T07:49:36;100069.00;;;11.50
19282;BMP180;9774;52.034;5.342;2024-02-26T07:52:04;100076.00;;;11.50
19282;BMP180;9774;52.034;5.342;2024-02-26T07:54:31;100075.00;;;11.50
19282;BMP180;9774;52.034;5.342;2024-02-26T07:56:58;100090.00;;;11.50
19282;BMP180;9774;52.034;5.342;2024-02-26T07:59:25;100089.00;;;11.60
19282;BMP180;9774;52.034;5.342;2024-02-26T08:01:55;100096.00;;;11.60
19282;BMP180;9774;52.034;5.342;2024-02-26T08:04:22;100084.00;;;11.60
19282;BMP180;9774;52.034;5.342;2024-02-26T08:06:50;100100.00;;;11.60
19282;BMP180;9774;52.034;5.342;2024-02-26T08:09:17;100105.00;;;11.60
19282;BMP180;9774;52.034;5.342;2024-02-26T08:11:45;100112.00;;;11.60
19282;BMP180;9774;52.034;5.342;2024-02-26T08:14:13;100115.00;;;11.70
19282;BMP180;9774;52.034;5.342;2024-02-26T08:16:40;100117.00;;;11.70
19282;BMP180;9774;52.034;5.342;2024-02-26T08:19:07;100123.00;;;11.70
19282;BMP180;9774;52.034;5.342;2024-02-26T08:21:35;100119.00;;;11.70
19282;BMP180;9774;52.034;5.342;2024-02-26T08:24:05;100129.00;;;11.70
19282;BMP180;9774;52.034;5.342;2024-02-26T08:26:32;100127.00;;;11.70
19282;BMP180;9774;52.034;5.342;2024-02-26T08:28:59;100127.00;;;11.70
19282;BMP180;9774;52.034;5.342;2024-02-26T08:31:26;100149.00;;;11.80
19282;BMP180;9774;52.034;5.342;2024-02-26T08:33:54;100129.00;;;11.80
19282;BMP180;9774;52.034;5.342;2024-02-26T08:36:21;100135.00;;;11.80
19282;BMP180;9774;52.034;5.342;2024-02-26T08:38:48;100144.00;;;11.80
19282;BMP180;9774;52.034;5.342;2024-02-26T08:41:17;100138.00;;;11.80
19282;BMP180;9774;52.034;5.342;2024-02-26T08:43:44;100143.00;;;11.90
19282;BMP180;9774;52.034;5.342;2024-02-26T08:46:13;100144.00;;;11.90
19282;BMP180;9774;52.034;5.342;2024-02-26T08:48:40;100148.00;;;11.90
19282;BMP180;9774;52.034;5.342;2024-02-26T08:51:08;100155.00;;;11.90
19282;BMP180;9774;52.034;5.342;2024-02-26T08:53:36;100156.00;;;11.90
19282;BMP180;9774;52.034;5.342;2024-02-26T08:56:04;100158.00;;;11.90
19282;BMP180;9774;52.034;5.342;2024-02-26T08:58:33;100157.00;;;11.90
19282;BMP180;9774;52.034;5.342;2024-02-26T09:01:00;100165.00;;;11.90
19282;BMP180;9774;52.034;5.342;2024-02-26T09:03:27;100168.00;;;11.90
19282;BMP180;9774;52.034;5.342;2024-02-26T09:05:54;100169.00;;;11.90
19282;BMP180;9774;52.034;5.342;2024-02-26T09:08:22;100173.00;;;11.90
19282;BMP180;9774;52.034;5.342;2024-02-26T09:10:50;100178.00;;;11.90
19282;BMP180;9774;52.034;5.342;2024-02-26T09:13:17;100170.00;;;11.90
19282;BMP180;9774;52.034;5.342;2024-02-26T09:15:46;100178.00;;;11.90
19282;BMP180;9774;52.034;5.342;2024-02-26T09:18:13;100183.00;;;11.90
19282;BMP180;9774;52.034;5.342;2024-02-26T09:20:41;100183.00;;;11.90
19282;BMP180;9774;52.034;5.342;2024-02-26T09:23:09;100186.00;;;11.90
19282;BMP180;9774;52.034;5.342;2024-02-26T09:25:36;100193.00;;;11.90
19282;BMP180;9774;52.034;5.342;2024-02-26T09:28:04;100199.00;;;11.90
19282;BMP180;9774;52.034;5.342;2024-02-26T09:30:31;100200.00;;;11.80
19282;BMP180;9774;52.034;5.342;2024-02-26T09:33:00;100199.00;;;11.80
19282;BMP180;9774;52.034;5.342;2024-02-26T09:35:27;100202.00;;;11.80
19282;BMP180;9774;52.034;5.342;2024-02-26T09:37:55;100204.00;;;11.80
19282;BMP180;9774;52.034;5.342;2024-02-26T09:40:22;100208.00;;;11.90
19282;BMP180;9774;52.034;5.342;2024-02-26T09:42:58;100213.00;;;11.80
19282;BMP180;9774;52.034;5.342;2024-02-26T09:45:27;100219.00;;;11.80
19282;BMP180;9774;52.034;5.342;2024-02-26T09:47:56;100219.00;;;11.80
19282;BMP180;9774;52.034;5.342;2024-02-26T09:50:25;100222.00;;;11.80
19282;BMP180;9774;52.034;5.342;2024-02-26T09:52:54;100225.00;;;11.80
19282;BMP180;9774;52.034;5.342;2024-02-26T09:55:23;100231.00;;;11.80
19282;BMP180;9774;52.034;5.342;2024-02-26T09:57:51;100224.00;;;11.80
19282;BMP180;9774;52.034;5.342;2024-02-26T10:00:21;100236.00;;;11.80
19282;BMP180;9774;52.034;5.342;2024-02-26T10:02:48;100241.00;;;11.90
19282;BMP180;9774;52.034;5.342;2024-02-26T10:05:18;100236.00;;;11.80
19282;BMP180;9774;52.034;5.342;2024-02-26T10:07:47;100240.00;;;11.80
19282;BMP180;9774;52.034;5.342;2024-02-26T10:10:14;100256.00;;;11.90
19282;BMP180;9774;52.034;5.342;2024-02-26T10:12:41;100252.00;;;11.90
19282;BMP180;9774;52.034;5.342;2024-02-26T10:15:09;100257.00;;;11.90
19282;BMP180;9774;52.034;5.342;2024-02-26T10:17:38;100261.00;;;11.90
19282;BMP180;9774;52.034;5.342;2024-02-26T10:20:13;100261.00;;;11.80
19282;BMP180;9774;52.034;5.342;2024-02-26T10:22:43;100267.00;;;11.90
19282;BMP180;9774;52.034;5.342;2024-02-26T10:25:12;100284.00;;;11.90
19282;BMP180;9774;52.034;5.342;2024-02-26T10:27:40;100281.00;;;11.90
19282;BMP180;9774;52.034;5.342;2024-02-26T10:30:17;100285.00;;;11.80
19282;BMP180;9774;52.034;5.342;2024-02-26T10:32:46;100293.00;;;11.90
19282;BMP180;9774;52.034;5.342;2024-02-26T10:35:13;100288.00;;;11.90
19282;BMP180;9774;52.034;5.342;2024-02-26T10:37:41;100291.00;;;11.90
19282;BMP180;9774;52.034;5.342;2024-02-26T10:40:12;100295.00;;;11.90
19282;BMP180;9774;52.034;5.342;2024-02-26T10:42:40;100302.00;;;11.90
19282;BMP180;9774;52.034;5.342;2024-02-26T10:45:09;100306.00;;;11.90
19282;BMP180;9774;52.034;5.342;2024-02-26T10:47:37;100313.00;;;11.90
19282;BMP180;9774;52.034;5.342;2024-02-26T10:50:06;100313.00;;;11.90
19282;BMP180;9774;52.034;5.342;2024-02-26T10:52:36;100321.00;;;11.90
19282;BMP180;9774;52.034;5.342;2024-02-26T10:55:05;100317.00;;;12.00
19282;BMP180;9774;52.034;5.342;2024-02-26T10:57:38;100320.00;;;12.00
19282;BMP180;9774;52.034;5.342;2024-02-26T11:00:10;100340.00;;;12.00
19282;BMP180;9774;52.034;5.342;2024-02-26T11:02:40;100337.00;;;12.10
19282;BMP180;9774;52.034;5.342;2024-02-26T11:05:08;100340.00;;;12.10
19282;BMP180;9774;52.034;5.342;2024-02-26T11:07:36;100356.00;;;12.20
19282;BMP180;9774;52.034;5.342;2024-02-26T11:10:05;100349.00;;;12.20
19282;BMP180;9774;52.034;5.342;2024-02-26T11:12:35;100353.00;;;12.20
19282;BMP180;9774;52.034;5.342;2024-02-26T11:15:04;100360.00;;;12.20
19282;BMP180;9774;52.034;5.342;2024-02-26T11:17:32;100358.00;;;12.20
19282;BMP180;9774;52.034;5.342;2024-02-26T11:20:00;100359.00;;;12.20
19282;BMP180;9774;52.034;5.342;2024-02-26T11:22:28;100363.00;;;12.30
19282;BMP180;9774;52.034;5.342;2024-02-26T11:24:56;100368.00;;;12.30
19282;BMP180;9774;52.034;5.342;2024-02-26T11:27:30;100370.00;;;12.30
19282;BMP180;9774;52.034;5.342;2024-02-26T11:30:04;100368.00;;;12.30
19282;BMP180;9774;52.034;5.342;2024-02-26T11:32:32;100375.00;;;12.30
19282;BMP180;9774;52.034;5.342;2024-02-26T11:35:01;100380.00;;;12.30
19282;BMP180;9774;52.034;5.342;2024-02-26T11:37:28;100385.00;;;12.40
19282;BMP180;9774;52.034;5.342;2024-02-26T11:39:59;100374.00;;;12.30
19282;BMP180;9774;52.034;5.342;2024-02-26T11:42:27;100386.00;;;12.40
19282;BMP180;9774;52.034;5.342;2024-02-26T11:44:55;100409.00;;;12.40
19282;BMP180;9774;52.034;5.342;2024-02-26T11:47:28;100390.00;;;12.30
19282;BMP180;9774;52.034;5.342;2024-02-26T11:49:55;100396.00;;;12.30
19282;BMP180;9774;52.034;5.342;2024-02-26T11:52:22;100400.00;;;12.30
19282;BMP180;9774;52.034;5.342;2024-02-26T11:54:50;100401.00;;;12.30
19282;BMP180;9774;52.034;5.342;2024-02-26T11:57:24;100410.00;;;12.30
19282;BMP180;9774;52.034;5.342;2024-02-26T11:59:54;100413.00;;;12.40
19282;BMP180;9774;52.034;5.342;2024-02-26T12:02:47;100411.00;;;12.20
19282;BMP180;9774;52.034;5.342;2024-02-26T12:05:20;100424.00;;;12.40
19282;BMP180;9774;52.034;5.342;2024-02-26T12:07:53;100429.00;;;12.40
19282;BMP180;9774;52.034;5.342;2024-02-26T12:10:26;100426.00;;;12.30
19282;BMP180;9774;52.034;5.342;2024-02-26T12:12:58;100414.00;;;12.30
19282;BMP180;9774;52.034;5.342;2024-02-26T12:15:31;100419.00;;;12.30
19282;BMP180;9774;52.034;5.342;2024-02-26T12:18:03;100427.00;;;12.30
19282;BMP180;9774;52.034;5.342;2024-02-26T12:20:31;100427.00;;;12.40
19282;BMP180;9774;52.034;5.342;2024-02-26T12:22:58;100434.00;;;12.30
19282;BMP180;9774;52.034;5.342;2024-02-26T12:25:28;100432.00;;;12.30
19282;BMP180;9774;52.034;5.342;2024-02-26T12:27:57;100440.00;;;12.40
19282;BMP180;9774;52.034;5.342;2024-02-26T12:30:25;100443.00;;;12.40
19282;BMP180;9774;52.034;5.342;2024-02-26T12:32:55;100447.00;;;12.30
19282;BMP180;9774;52.034;5.342;2024-02-26T12:35:26;100434.00;;;12.30
19282;BMP180;9774;52.034;5.342;2024-02-26T12:37:54;100441.00;;;12.30
19282;BMP180;9774;52.034;5.342;2024-02-26T12:40:22;100455.00;;;12.40
19282;BMP180;9774;52.034;5.342;2024-02-26T12:42:49;100449.00;;;12.40
19282;BMP180;9774;52.034;5.342;2024-02-26T12:45:18;100449.00;;;12.40
19282;BMP180;9774;52.034;5.342;2024-02-26T12:47:46;100460.00;;;12.40
19282;BMP180;9774;52.034;5.342;2024-02-26T12:50:15;100454.00;;;12.40
19282;BMP180;9774;52.034;5.342;2024-02-26T12:52:47;100473.00;;;12.40
19282;BMP180;9774;52.034;5.342;2024-02-26T12:55:18;100465.00;;;12.40
19282;BMP180;9774;52.034;5.342;2024-02-26T12:57:46;100466.00;;;12.40
19282;BMP180;9774;52.034;5.342;2024-02-26T13:00:20;100476.00;;;12.40
19282;BMP180;9774;52.034;5.342;2024-02-26T13:02:49;100476.00;;;12.40
19282;BMP180;9774;52.034;5.342;2024-02-26T13:05:19;100481.00;;;12.40
19282;BMP180;9774;52.034;5.342;2024-02-26T13:07:48;100490.00;;;12.40
19282;BMP180;9774;52.034;5.342;2024-02-26T13:10:17;100494.00;;;12.50
19282;BMP180;9774;52.034;5.342;2024-02-26T13:12:46;100482.00;;;12.50
19282;BMP180;9774;52.034;5.342;2024-02-26T13:15:18;100493.00;;;12.50
19282;BMP180;9774;52.034;5.342;2024-02-26T13:17:45;100496.00;;;12.50
19282;BMP180;9774;52.034;5.342;2024-02-26T13:20:24;100501.00;;;12.50
19282;BMP180;9774;52.034;5.342;2024-02-26T13:23:01;100497.00;;;12.50
19282;BMP180;9774;52.034;5.342;2024-02-26T13:25:28;100517.00;;;12.60
19282;BMP180;9774;52.034;5.342;2024-02-26T13:28:06;100520.00;;;12.50
19282;BMP180;9774;52.034;5.342;2024-02-26T13:30:35;100517.00;;;12.60
19282;BMP180;9774;52.034;5.342;2024-02-26T13:33:08;100519.00;;;12.60
19282;BMP180;9774;52.034;5.342;2024-02-26T13:35:36;100513.00;;;12.60
19282;BMP180;9774;52.034;5.342;2024-02-26T13:38:06;100521.00;;;12.60
19282;BMP180;9774;52.034;5.342;2024-02-26T13:40:34;100524.00;;;12.60
19282;BMP180;9774;52.034;5.342;2024-02-26T13:43:02;100523.00;;;12.60
19282;BMP180;9774;52.034;5.342;2024-02-26T13:45:29;100527.00;;;12.70
19282;BMP180;9774;52.034;5.342;2024-02-26T13:48:03;100531.00;;;12.60
19282;BMP180;9774;52.034;5.342;2024-02-26T13:50:30;100532.00;;;12.70
19282;BMP180;9774;52.034;5.342;2024-02-26T13:52:57;100528.00;;;12.70
19282;BMP180;9774;52.034;5.342;2024-02-26T13:55:26;100543.00;;;12.70
19282;BMP180;9774;52.034;5.342;2024-02-26T13:57:56;100546.00;;;12.80
19282;BMP180;9774;52.034;5.342;2024-02-26T14:00:24;100546.00;;;12.80
19282;BMP180;9774;52.034;5.342;2024-02-26T14:02:51;100552.00;;;12.80
19282;BMP180;9774;52.034;5.342;2024-02-26T14:05:18;100554.00;;;12.80
19282;BMP180;9774;52.034;5.342;2024-02-26T14:07:46;100559.00;;;12.80
19282;BMP180;9774;52.034;5.342;2024-02-26T14:10:13;100567.00;;;12.80
19282;BMP180;9774;52.034;5.342;2024-02-26T14:12:43;100566.00;;;12.80
19282;BMP180;9774;52.034;5.342;2024-02-26T14:15:10;100570.00;;;12.80
19282;BMP180;9774;52.034;5.342;2024-02-26T14:17:38;100568.00;;;12.80
19282;BMP180;9774;52.034;5.342;2024-02-26T14:20:07;100575.00;;;12.80